Time;durP1;ratioP1;P1;durP2;ratioP2;P2;SDS_P1;SDS_P2;PMS_P1;PMS_P2;Temp;Humidity;BMP_temperature;BMP_pressure;BME280_temperature;BME280_humidity;BME280_pressure;Samples;Min_cycle;Max_cycle;Signal;HPM_P1;HPM_P2
2022/05/20 00:00:14;;;;;;;;;0.00;0.00;;;;;;;;5033263;28;45592;-69
2022/05/20 00:02:39;;;;;;;;;1.00;0.00;;;;;;;;5033320;28;45575;-68
2022/05/20 00:05:04;;;;;;;;;0.00;0.00;;;;;;;;5048036;28;45517;-68
2022/05/20 00:07:30;;;;;;;;;1.25;1.00;;;;;;;;5034260;28;46523;-68
2022/05/20 00:09:55;;;;;;;;;0.00;0.00;;;;;;;;5031236;28;45334;-69
2022/05/20 00:12:20;;;;;;;;;0.00;0.00;;;;;;;;5033505;28;45444;-67
2022/05/20 00:14:46;;;;;;;;;1.00;1.00;;;;;;;;5031688;28;45436;-67
2022/05/20 00:17:11;;;;;;;;;0.00;0.00;;;;;;;;5032708;28;46980;-68
2022/05/20 00:19:37;;;;;;;;;0.75;0.25;;;;;;;;5035198;28;45543;-67
2022/05/20 00:22:02;;;;;;;;;2.00;0.75;;;;;;;;5032616;28;45337;-68
2022/05/20 00:24:27;;;;;;;;;0.50;0.50;;;;;;;;5032655;28;45634;-68
2022/05/20 00:26:53;;;;;;;;;0.00;0.00;;;;;;;;5032659;28;46426;-68
2022/05/20 00:29:18;;;;;;;;;0.00;0.00;;;;;;;;5032888;28;45436;-68
2022/05/20 00:31:44;;;;;;;;;0.00;0.00;;;;;;;;5034201;28;45420;-68
2022/05/20 00:34:09;;;;;;;;;0.67;0.00;;;;;;;;5031918;28;45832;-68
2022/05/20 00:36:34;;;;;;;;;0.00;0.00;;;;;;;;5032444;28;46932;-68
2022/05/20 00:39:00;;;;;;;;;0.00;0.00;;;;;;;;5032546;28;45508;-68
2022/05/20 00:41:25;;;;;;;;;1.00;1.00;;;;;;;;5032605;28;45428;-68
2022/05/20 00:43:50;;;;;;;;;0.75;0.75;;;;;;;;5031877;28;45477;-68
2022/05/20 00:46:17;;;;;;;;;0.33;0.33;;;;;;;;5031999;28;45755;-68
2022/05/20 00:48:42;;;;;;;;;0.75;0.75;;;;;;;;5031223;28;46173;-68
2022/05/20 00:51:22;;;;;;;;;0.00;0.00;;;;;;;;5031146;28;45750;-68
2022/05/20 00:54:09;;;;;;;;;0.00;0.00;;;;;;;;5032314;28;45486;-68
2022/05/20 00:56:40;;;;;;;;;0.00;0.00;;;;;;;;5030871;28;46480;-68
2022/05/20 00:59:08;;;;;;;;;1.25;1.00;;;;;;;;5032280;28;45389;-67
2022/05/20 01:01:34;;;;;;;;;0.00;0.00;;;;;;;;5033115;28;45425;-68
2022/05/20 01:04:00;;;;;;;;;0.00;0.00;;;;;;;;5029034;28;45411;-68
2022/05/20 01:06:26;;;;;;;;;0.00;0.00;;;;;;;;5028274;28;47536;-68
2022/05/20 01:08:51;;;;;;;;;1.00;0.75;;;;;;;;5016403;28;45413;-67
2022/05/20 01:11:16;;;;;;;;;0.50;0.50;;;;;;;;5045691;28;45554;-67
2022/05/20 01:13:44;;;;;;;;;1.00;1.00;;;;;;;;5029232;28;45633;-67
2022/05/20 01:16:11;;;;;;;;;0.00;0.00;;;;;;;;5028355;28;47580;-67
2022/05/20 01:18:38;;;;;;;;;0.00;0.00;;;;;;;;5025952;28;45569;-68
2022/05/20 01:21:04;;;;;;;;;1.00;1.00;;;;;;;;5027837;28;45571;-68
2022/05/20 01:23:31;;;;;;;;;0.50;0.00;;;;;;;;5029886;28;45536;-69
2022/05/20 01:25:58;;;;;;;;;0.50;0.50;;;;;;;;5030544;28;45552;-67
2022/05/20 01:28:24;;;;;;;;;1.00;0.00;;;;;;;;5029669;28;45810;-68
2022/05/20 01:30:52;;;;;;;;;0.00;0.00;;;;;;;;5026928;28;45979;-68
2022/05/20 01:33:26;;;;;;;;;1.50;0.00;;;;;;;;5031150;28;45741;-68
2022/05/20 01:35:52;;;;;;;;;1.00;0.00;;;;;;;;5034590;28;49020;-69
2022/05/20 01:38:17;;;;;;;;;0.75;0.75;;;;;;;;5023463;28;45635;-68
2022/05/20 01:41:03;;;;;;;;;1.00;0.00;;;;;;;;5030239;28;45433;-69
2022/05/20 01:43:40;;;;;;;;;0.00;0.00;;;;;;;;5034704;28;45358;-68
2022/05/20 01:46:12;;;;;;;;;1.00;1.00;;;;;;;;5019148;28;46463;-68
2022/05/20 01:48:42;;;;;;;;;0.00;0.00;;;;;;;;5044800;28;46217;-68
2022/05/20 01:51:11;;;;;;;;;1.00;1.00;;;;;;;;5025157;28;46036;-67
2022/05/20 01:53:42;;;;;;;;;0.00;0.00;;;;;;;;5031721;28;45483;-69
2022/05/20 01:56:27;;;;;;;;;0.00;0.00;;;;;;;;5018988;28;45937;-68
2022/05/20 01:58:55;;;;;;;;;0.00;0.00;;;;;;;;5018243;28;45974;-68
2022/05/20 02:01:24;;;;;;;;;1.00;1.00;;;;;;;;5035539;28;45571;-68
2022/05/20 02:03:51;;;;;;;;;0.33;0.33;;;;;;;;5028276;28;45414;-68
2022/05/20 02:06:21;;;;;;;;;0.00;0.00;;;;;;;;5033947;28;45621;-68
2022/05/20 02:08:57;;;;;;;;;0.75;0.00;;;;;;;;5020075;28;45740;-69
2022/05/20 02:11:29;;;;;;;;;0.00;0.00;;;;;;;;5034110;28;45483;-68
2022/05/20 02:14:08;;;;;;;;;0.75;0.75;;;;;;;;5018690;28;45953;-68
2022/05/20 02:16:36;;;;;;;;;1.00;0.50;;;;;;;;5019385;28;45497;-69
2022/05/20 02:19:14;;;;;;;;;0.00;0.00;;;;;;;;5044184;28;45611;-68
2022/05/20 02:21:42;;;;;;;;;0.00;0.00;;;;;;;;5023192;28;45767;-68
2022/05/20 02:24:10;;;;;;;;;1.00;1.00;;;;;;;;5025670;28;45365;-67
2022/05/20 02:26:41;;;;;;;;;0.00;0.00;;;;;;;;5027432;28;45870;-67
2022/05/20 02:29:15;;;;;;;;;0.25;0.00;;;;;;;;5033595;28;45536;-67
2022/05/20 02:31:43;;;;;;;;;0.75;0.75;;;;;;;;5032295;28;45579;-67
2022/05/20 02:34:08;;;;;;;;;0.00;0.00;;;;;;;;5022318;28;45498;-67
2022/05/20 02:36:34;;;;;;;;;0.00;0.00;;;;;;;;5021995;28;45409;-68
2022/05/20 02:39:00;;;;;;;;;1.75;0.75;;;;;;;;5022435;28;46621;-67
2022/05/20 02:41:26;;;;;;;;;0.00;0.00;;;;;;;;5016869;28;45872;-68
2022/05/20 02:43:51;;;;;;;;;0.00;0.00;;;;;;;;5033025;28;45506;-68
2022/05/20 02:46:17;;;;;;;;;1.50;0.25;;;;;;;;5031154;28;46680;-67
2022/05/20 02:48:42;;;;;;;;;0.25;0.25;;;;;;;;5029944;28;45528;-68
2022/05/20 02:51:07;;;;;;;;;1.50;0.25;;;;;;;;5030254;28;45809;-68
2022/05/20 02:53:33;;;;;;;;;0.00;0.00;;;;;;;;5031004;28;45563;-69
2022/05/20 02:55:59;;;;;;;;;1.00;1.00;;;;;;;;5031871;28;48621;-69
2022/05/20 03:04:12;;;;;;;;;2.00;0.67;;;;;;;;5029026;28;45334;-68
2022/05/20 03:06:37;;;;;;;;;1.67;0.67;;;;;;;;5029308;28;45477;-68
2022/05/20 03:09:03;;;;;;;;;2.00;1.25;;;;;;;;5029359;28;45481;-69
2022/05/20 03:11:28;;;;;;;;;1.67;1.67;;;;;;;;5047773;28;45484;-68
2022/05/20 03:13:54;;;;;;;;;0.75;0.75;;;;;;;;5018792;28;45434;-68
2022/05/20 03:16:19;;;;;;;;;1.00;1.00;;;;;;;;5022087;28;45440;-69
2022/05/20 03:18:44;;;;;;;;;2.00;2.00;;;;;;;;5026606;28;45338;-68
2022/05/20 03:21:09;;;;;;;;;0.67;0.67;;;;;;;;5044927;28;45473;-68
2022/05/20 03:23:34;;;;;;;;;2.00;2.00;;;;;;;;5017278;28;45807;-68
2022/05/20 03:26:02;;;;;;;;;4.00;2.75;;;;;;;;5032879;28;47964;-68
2022/05/20 03:28:28;;;;;;;;;3.50;3.00;;;;;;;;5020347;28;45492;-68
2022/05/20 03:30:53;;;;;;;;;3.00;3.00;;;;;;;;5027819;28;45833;-69
2022/05/20 03:33:18;;;;;;;;;1.75;1.75;;;;;;;;5029418;28;45568;-68
2022/05/20 03:35:43;;;;;;;;;1.75;1.00;;;;;;;;5030708;28;47612;-68
2022/05/20 03:38:08;;;;;;;;;2.00;1.00;;;;;;;;5016000;28;45390;-68
2022/05/20 03:40:34;;;;;;;;;1.00;1.00;;;;;;;;5031587;28;45381;-68
2022/05/20 03:42:59;;;;;;;;;3.00;1.50;;;;;;;;5040156;28;45541;-68
2022/05/20 03:45:24;;;;;;;;;2.00;2.00;;;;;;;;5032240;28;46377;-68
2022/05/20 03:47:49;;;;;;;;;2.25;1.50;;;;;;;;5031754;28;45480;-68
2022/05/20 03:50:14;;;;;;;;;1.50;1.00;;;;;;;;5032527;28;45271;-68
2022/05/20 03:52:40;;;;;;;;;1.50;1.50;;;;;;;;5047963;28;45344;-68
2022/05/20 03:55:06;;;;;;;;;3.75;1.00;;;;;;;;5033468;28;46282;-68
2022/05/20 03:57:31;;;;;;;;;1.00;1.00;;;;;;;;5032536;28;45341;-67
2022/05/20 03:59:56;;;;;;;;;0.75;0.75;;;;;;;;5033158;28;45498;-68
2022/05/20 04:02:21;;;;;;;;;1.75;1.75;;;;;;;;5033605;28;45617;-67
2022/05/20 04:04:50;;;;;;;;;2.25;1.75;;;;;;;;5034315;28;46344;-68
2022/05/20 04:07:17;;;;;;;;;1.00;1.00;;;;;;;;5046446;28;46223;-68
2022/05/20 04:09:42;;;;;;;;;2.50;2.50;;;;;;;;5028607;28;45721;-68
2022/05/20 04:12:08;;;;;;;;;2.75;1.75;;;;;;;;5033189;28;45497;-68
2022/05/20 04:14:34;;;;;;;;;2.25;2.25;;;;;;;;5032975;28;45911;-68
2022/05/20 04:16:59;;;;;;;;;2.50;2.50;;;;;;;;5032007;28;45432;-68
2022/05/20 04:19:25;;;;;;;;;2.75;1.50;;;;;;;;5033513;28;45457;-68
2022/05/20 04:21:51;;;;;;;;;3.75;2.50;;;;;;;;5032923;28;45280;-67
2022/05/20 04:24:16;;;;;;;;;1.50;1.50;;;;;;;;5028143;28;47404;-69
2022/05/20 04:26:42;;;;;;;;;2.00;1.75;;;;;;;;5036905;28;46029;-69
2022/05/20 04:29:07;;;;;;;;;2.50;2.50;;;;;;;;5048363;28;45335;-69
2022/05/20 04:31:32;;;;;;;;;2.00;2.00;;;;;;;;5034737;28;45670;-68
2022/05/20 04:33:57;;;;;;;;;2.50;2.00;;;;;;;;5027888;28;48535;-69
2022/05/20 04:36:23;;;;;;;;;1.00;1.00;;;;;;;;5039004;28;46025;-70
2022/05/20 04:38:48;;;;;;;;;1.00;1.00;;;;;;;;5020780;28;45369;-67
2022/05/20 04:46:59;;;;;;;;;1.75;1.00;;;;;;;;5031099;28;45423;-68
2022/05/20 04:49:26;;;;;;;;;2.50;2.00;;;;;;;;5031947;28;45481;-69
2022/05/20 04:51:51;;;;;;;;;5.25;2.50;;;;;;;;5031071;28;45557;-69
2022/05/20 04:57:00;;;;;;;;;2.50;2.50;;;;;;;;5031135;28;45556;-70
2022/05/20 04:59:25;;;;;;;;;1.00;1.00;;;;;;;;5031319;28;45435;-68
2022/05/20 05:01:51;;;;;;;;;2.75;2.75;;;;;;;;5033229;28;45522;-68
2022/05/20 05:04:17;;;;;;;;;2.00;2.00;;;;;;;;5028957;28;48612;-68
2022/05/20 05:06:42;;;;;;;;;3.33;2.67;;;;;;;;5029280;28;45425;-67
2022/05/20 05:09:07;;;;;;;;;1.00;1.00;;;;;;;;5032297;28;45750;-67
2022/05/20 05:11:33;;;;;;;;;2.00;2.00;;;;;;;;5047577;28;45541;-66
2022/05/20 05:13:58;;;;;;;;;2.00;2.00;;;;;;;;5047003;28;46459;-67
2022/05/20 05:16:23;;;;;;;;;2.50;2.50;;;;;;;;5032442;28;45585;-66
2022/05/20 05:18:48;;;;;;;;;2.00;2.00;;;;;;;;5032146;28;45437;-66
2022/05/20 05:21:14;;;;;;;;;2.75;2.75;;;;;;;;5032040;28;45404;-66
2022/05/20 05:23:40;;;;;;;;;4.50;3.50;;;;;;;;5030650;28;47890;-66
2022/05/20 05:26:05;;;;;;;;;4.00;3.00;;;;;;;;5032033;28;45406;-66
2022/05/20 05:28:30;;;;;;;;;2.75;1.50;;;;;;;;5034006;28;45515;-66
2022/05/20 05:30:55;;;;;;;;;2.50;2.50;;;;;;;;5031666;28;45436;-66
2022/05/20 05:33:21;;;;;;;;;4.25;3.25;;;;;;;;5027056;28;47220;-66
2022/05/20 05:35:46;;;;;;;;;2.00;2.00;;;;;;;;5021018;28;45651;-66
2022/05/20 05:38:11;;;;;;;;;3.50;3.50;;;;;;;;5031897;28;45795;-66
2022/05/20 05:40:38;;;;;;;;;3.00;3.00;;;;;;;;5029729;28;45386;-65
2022/05/20 05:43:03;;;;;;;;;4.25;3.00;;;;;;;;5031226;28;48732;-67
2022/05/20 05:45:30;;;;;;;;;3.75;3.75;;;;;;;;5031447;28;45255;-67
2022/05/20 05:48:15;;;;;;;;;3.75;3.75;;;;;;;;5031848;28;45592;-67
2022/05/20 05:50:41;;;;;;;;;11.25;3.50;;;;;;;;5031577;28;45586;-69
2022/05/20 05:53:14;;;;;;;;;4.75;3.00;;;;;;;;5030248;28;47219;-67
2022/05/20 05:55:41;;;;;;;;;3.00;3.00;;;;;;;;5033667;28;45413;-67
2022/05/20 05:58:07;;;;;;;;;2.50;1.00;;;;;;;;5030631;28;45591;-67
2022/05/20 06:00:32;;;;;;;;;4.00;4.00;;;;;;;;5031204;28;45405;-67
2022/05/20 06:02:57;;;;;;;;;7.00;5.50;;;;;;;;5031541;28;45535;-66
2022/05/20 06:05:23;;;;;;;;;7.50;4.75;;;;;;;;5031655;28;45361;-65
2022/05/20 06:07:48;;;;;;;;;5.00;5.00;;;;;;;;5032805;28;45346;-65
2022/05/20 06:10:13;;;;;;;;;8.75;5.00;;;;;;;;5027776;28;45560;-66
2022/05/20 06:12:39;;;;;;;;;5.25;4.75;;;;;;;;5027736;28;46571;-66
2022/05/20 06:15:09;;;;;;;;;5.25;5.25;;;;;;;;5030129;28;45748;-66
2022/05/20 06:17:35;;;;;;;;;8.75;6.00;;;;;;;;5030229;28;45594;-67
2022/05/20 06:20:00;;;;;;;;;6.25;5.00;;;;;;;;5032804;28;45367;-67
2022/05/20 06:22:26;;;;;;;;;7.00;5.75;;;;;;;;5036841;28;45736;-68
2022/05/20 06:24:51;;;;;;;;;6.75;6.00;;;;;;;;5034650;28;45493;-68
2022/05/20 06:27:16;;;;;;;;;6.00;6.00;;;;;;;;5033478;28;45380;-67
2022/05/20 06:29:41;;;;;;;;;5.75;5.00;;;;;;;;5033265;28;45673;-66
2022/05/20 06:32:07;;;;;;;;;9.25;6.00;;;;;;;;5034206;28;47904;-66
2022/05/20 06:39:48;;;;;;;;;10.50;7.25;;;;;;;;5035395;28;45794;-65
2022/05/20 06:40:08;;;;;;;;;11.50;9.75;;;;;;;;5032571;28;45591;-66
2022/05/20 06:42:33;;;;;;;;;5.75;5.75;;;;;;;;5034079;28;46339;-66
2022/05/20 06:44:59;;;;;;;;;7.00;6.00;;;;;;;;5034347;28;45331;-66
2022/05/20 06:47:24;;;;;;;;;11.00;9.25;;;;;;;;5034758;28;45388;-65
2022/05/20 06:49:49;;;;;;;;;8.00;7.00;;;;;;;;5035378;28;45438;-66
2022/05/20 06:52:14;;;;;;;;;7.75;7.75;;;;;;;;5035219;28;45415;-68
2022/05/20 06:54:40;;;;;;;;;10.25;8.25;;;;;;;;5032719;28;45422;-65
2022/05/20 06:57:05;;;;;;;;;7.75;7.75;;;;;;;;5049509;28;45463;-65
2022/05/20 06:59:30;;;;;;;;;7.75;7.75;;;;;;;;5034494;28;45488;-64
2022/05/20 07:02:00;;;;;;;;;9.50;9.00;;;;;;;;5034301;28;46447;-65
2022/05/20 07:04:25;;;;;;;;;11.25;8.00;;;;;;;;5030089;28;45379;-65
2022/05/20 07:06:51;;;;;;;;;11.00;8.75;;;;;;;;5032444;28;45511;-65
2022/05/20 07:09:16;;;;;;;;;10.25;8.75;;;;;;;;5033973;28;45474;-65
2022/05/20 07:11:42;;;;;;;;;9.00;9.00;;;;;;;;5033832;28;46028;-65
2022/05/20 07:14:07;;;;;;;;;10.00;9.75;;;;;;;;5034154;28;45969;-65
2022/05/20 07:16:32;;;;;;;;;12.00;11.00;;;;;;;;5035897;28;45364;-66
2022/05/20 07:18:57;;;;;;;;;12.50;12.50;;;;;;;;5033910;28;45409;-66
2022/05/20 07:21:23;;;;;;;;;14.50;13.75;;;;;;;;5032173;28;47810;-67
2022/05/20 07:23:48;;;;;;;;;17.00;15.00;;;;;;;;5031770;28;45280;-66
2022/05/20 07:26:16;;;;;;;;;16.50;15.00;;;;;;;;5031326;28;45491;-66
2022/05/20 07:28:41;;;;;;;;;12.75;12.00;;;;;;;;5035661;28;45409;-66
2022/05/20 07:31:06;;;;;;;;;11.00;8.00;;;;;;;;5031162;28;47726;-66
2022/05/20 07:33:32;;;;;;;;;15.50;11.75;;;;;;;;5032218;28;45757;-65
2022/05/20 07:35:57;;;;;;;;;13.00;12.00;;;;;;;;5033714;28;45370;-66
2022/05/20 07:38:23;;;;;;;;;13.50;12.00;;;;;;;;5033893;28;45448;-68
2022/05/20 07:40:50;;;;;;;;;11.50;11.00;;;;;;;;5034780;28;45639;-68
2022/05/20 07:43:16;;;;;;;;;9.50;9.50;;;;;;;;5034895;28;45601;-68
2022/05/20 07:45:41;;;;;;;;;9.00;9.00;;;;;;;;5031959;28;45500;-67
2022/05/20 07:48:06;;;;;;;;;8.75;8.75;;;;;;;;5031828;28;45373;-67
2022/05/20 07:50:38;;;;;;;;;13.25;10.75;;;;;;;;5031922;28;47534;-67
2022/05/20 07:53:21;;;;;;;;;16.75;15.25;;;;;;;;5048334;28;45509;-67
2022/05/20 07:55:58;;;;;;;;;13.00;11.50;;;;;;;;5030598;28;45377;-66
2022/05/20 07:58:26;;;;;;;;;13.75;13.50;;;;;;;;5031162;28;45437;-67
2022/05/20 08:00:51;;;;;;;;;18.00;17.50;;;;;;;;5031216;28;48684;-66
2022/05/20 08:04:52;;;;;;;;;16.25;14.50;;;;;;;;5031288;28;45471;-64
2022/05/20 08:06:03;;;;;;;;;20.75;19.00;;;;;;;;5032920;28;45539;-65
2022/05/20 08:08:29;;;;;;;;;14.25;14.25;;;;;;;;5033166;28;45481;-66
2022/05/20 08:10:54;;;;;;;;;15.50;15.50;;;;;;;;5033837;28;46579;-66
2022/05/20 08:13:21;;;;;;;;;18.00;14.00;;;;;;;;5031228;28;45401;-66
2022/05/20 08:15:47;;;;;;;;;17.25;16.25;;;;;;;;5031690;28;45467;-66
2022/05/20 08:18:12;;;;;;;;;16.25;13.50;;;;;;;;5032525;28;45507;-66
2022/05/20 08:20:37;;;;;;;;;20.25;18.50;;;;;;;;5032914;28;45796;-66
2022/05/20 08:23:02;;;;;;;;;13.50;12.00;;;;;;;;5032859;28;46076;-66
2022/05/20 08:25:29;;;;;;;;;19.00;17.00;;;;;;;;5034567;28;45521;-66
2022/05/20 08:27:54;;;;;;;;;20.75;18.25;;;;;;;;5032673;28;45480;-65
2022/05/20 08:30:21;;;;;;;;;21.25;17.25;;;;;;;;5044444;28;46425;-65
2022/05/20 08:32:47;;;;;;;;;16.50;16.50;;;;;;;;5020065;28;45581;-64
2022/05/20 08:35:13;;;;;;;;;18.50;17.50;;;;;;;;5032671;28;45418;-65
2022/05/20 08:37:40;;;;;;;;;18.75;18.00;;;;;;;;5034726;28;45398;-66
2022/05/20 08:40:07;;;;;;;;;21.75;18.75;;;;;;;;5032270;28;45933;-66
2022/05/20 08:42:33;;;;;;;;;20.25;18.50;;;;;;;;5031732;28;45385;-65
2022/05/20 08:45:01;;;;;;;;;23.50;17.00;;;;;;;;5032617;28;45409;-66
2022/05/20 08:47:31;;;;;;;;;19.00;16.25;;;;;;;;5033349;28;45403;-66
2022/05/20 08:49:58;;;;;;;;;47.50;38.75;;;;;;;;5033758;28;45578;-69
2022/05/20 08:52:24;;;;;;;;;43.50;36.50;;;;;;;;5032335;28;45575;-68
2022/05/20 08:54:49;;;;;;;;;50.25;42.25;;;;;;;;5032385;28;45430;-67
2022/05/20 08:57:17;;;;;;;;;55.25;43.75;;;;;;;;5032065;28;45360;-67
2022/05/20 08:59:43;;;;;;;;;37.00;33.75;;;;;;;;5032261;28;45978;-67
2022/05/20 09:02:08;;;;;;;;;21.00;19.00;;;;;;;;5031158;28;46472;-67
2022/05/20 09:04:33;;;;;;;;;24.00;22.75;;;;;;;;5034286;28;45267;-67
2022/05/20 09:06:58;;;;;;;;;36.00;29.75;;;;;;;;5032432;28;45426;-66
2022/05/20 09:09:26;;;;;;;;;25.75;25.75;;;;;;;;5027560;28;48601;-67
2022/05/20 09:11:56;;;;;;;;;27.50;26.75;;;;;;;;5020751;28;45594;-66
2022/05/20 09:17:13;;;;;;;;;26.50;23.25;;;;;;;;5032097;28;45611;-67
2022/05/20 09:19:52;;;;;;;;;21.50;21.50;;;;;;;;5029880;28;45352;-66
2022/05/20 09:22:17;;;;;;;;;28.00;27.25;;;;;;;;5033540;28;45435;-66
2022/05/20 09:24:44;;;;;;;;;26.25;24.50;;;;;;;;5031825;28;45559;-66
2022/05/20 09:27:12;;;;;;;;;20.00;19.25;;;;;;;;5027596;28;45431;-66
2022/05/20 09:29:43;;;;;;;;;25.25;24.00;;;;;;;;5019694;28;45778;-66
2022/05/20 09:32:21;;;;;;;;;22.25;20.00;;;;;;;;5031604;28;45445;-66
2022/05/20 09:34:53;;;;;;;;;18.50;17.50;;;;;;;;5048589;28;45421;-66
2022/05/20 09:37:19;;;;;;;;;17.25;14.50;;;;;;;;5033325;28;45350;-66
2022/05/20 09:39:47;;;;;;;;;23.50;21.00;;;;;;;;5031663;28;45963;-66
2022/05/20 09:42:12;;;;;;;;;62.50;44.50;;;;;;;;5031801;28;45596;-68
2022/05/20 09:44:38;;;;;;;;;56.25;41.00;;;;;;;;5030425;28;45511;-70
2022/05/20 09:47:10;;;;;;;;;35.75;32.50;;;;;;;;5031754;28;45466;-69
2022/05/20 09:49:44;;;;;;;;;34.25;31.50;;;;;;;;5032297;28;48400;-67
2022/05/20 09:52:25;;;;;;;;;37.50;35.00;;;;;;;;5030905;28;45420;-66
2022/05/20 09:55:05;;;;;;;;;35.00;32.75;;;;;;;;5032712;28;45396;-67
2022/05/20 09:57:40;;;;;;;;;33.75;33.25;;;;;;;;5047070;28;45536;-67
2022/05/20 10:00:13;;;;;;;;;32.50;29.50;;;;;;;;5024980;28;46435;-67
2022/05/20 10:02:41;;;;;;;;;33.50;33.25;;;;;;;;5034913;28;45529;-69
2022/05/20 10:05:25;;;;;;;;;32.25;29.00;;;;;;;;5035088;28;45347;-68
2022/05/20 10:08:10;;;;;;;;;29.25;28.00;;;;;;;;5036099;28;45437;-68
2022/05/20 10:10:40;;;;;;;;;34.00;29.00;;;;;;;;5036944;28;45665;-69
2022/05/20 10:13:07;;;;;;;;;30.00;28.75;;;;;;;;5033778;28;45495;-70
2022/05/20 10:15:38;;;;;;;;;32.00;28.25;;;;;;;;5034718;28;45548;-71
2022/05/20 10:18:18;;;;;;;;;29.50;27.75;;;;;;;;5049931;28;45758;-70
2022/05/20 10:20:44;;;;;;;;;29.75;28.00;;;;;;;;5034841;28;45539;-71
2022/05/20 10:23:15;;;;;;;;;30.75;30.25;;;;;;;;5034942;28;45274;-70
2022/05/20 10:25:59;;;;;;;;;29.75;29.75;;;;;;;;5052562;28;45731;-69
2022/05/20 10:34:26;;;;;;;;;41.25;36.25;;;;;;;;5036502;28;45480;-67
2022/05/20 10:37:21;;;;;;;;;32.00;27.75;;;;;;;;5030060;28;46878;-68
2022/05/20 10:40:09;;;;;;;;;27.50;27.50;;;;;;;;5018971;28;45664;-66
2022/05/20 10:42:46;;;;;;;;;27.00;25.00;;;;;;;;4992361;28;45696;-67
2022/05/20 10:50:47;;;;;;;;;31.25;30.50;;;;;;;;4992608;28;45464;-68
2022/05/20 10:53:40;;;;;;;;;35.50;34.50;;;;;;;;4977042;28;45581;-67
2022/05/20 10:56:35;;;;;;;;;30.50;29.25;;;;;;;;4991888;28;45392;-69
2022/05/20 10:59:11;;;;;;;;;34.25;32.50;;;;;;;;4966867;28;47256;-67
2022/05/20 11:01:42;;;;;;;;;30.00;29.00;;;;;;;;4993895;28;45558;-68
2022/05/20 11:04:10;;;;;;;;;25.75;24.75;;;;;;;;4992230;28;45648;-68
2022/05/20 11:06:49;;;;;;;;;26.75;21.50;;;;;;;;4991934;28;45483;-68
2022/05/20 11:09:34;;;;;;;;;25.50;25.25;;;;;;;;4992319;28;45841;-68
2022/05/20 11:12:01;;;;;;;;;25.25;23.50;;;;;;;;4975475;28;45818;-68
2022/05/20 11:14:32;;;;;;;;;24.75;22.25;;;;;;;;5008651;28;47383;-66
2022/05/20 11:17:03;;;;;;;;;26.00;23.25;;;;;;;;4992159;28;45447;-67
2022/05/20 11:19:49;;;;;;;;;23.00;23.00;;;;;;;;5003448;28;45650;-65
2022/05/20 11:22:21;;;;;;;;;20.00;20.00;;;;;;;;5033401;28;45496;-66
2022/05/20 11:24:49;;;;;;;;;24.75;24.75;;;;;;;;5028347;28;47541;-66
2022/05/20 11:27:28;;;;;;;;;21.25;21.25;;;;;;;;5025693;28;45575;-66
2022/05/20 11:30:12;;;;;;;;;31.50;30.50;;;;;;;;5033145;28;45363;-67
2022/05/20 11:32:44;;;;;;;;;27.25;27.25;;;;;;;;5033277;28;45517;-67
2022/05/20 11:35:10;;;;;;;;;28.75;26.50;;;;;;;;5033411;28;45389;-67
2022/05/20 11:37:50;;;;;;;;;24.00;22.00;;;;;;;;5035557;28;45468;-66
2022/05/20 11:40:42;;;;;;;;;24.50;19.50;;;;;;;;5033613;28;45517;-67
2022/05/20 11:43:19;;;;;;;;;23.50;23.50;;;;;;;;5045902;28;45660;-67
2022/05/20 11:45:44;;;;;;;;;26.25;26.25;;;;;;;;5033108;28;45347;-67
2022/05/20 11:48:28;;;;;;;;;19.50;18.25;;;;;;;;5033124;28;45446;-67
2022/05/20 11:51:06;;;;;;;;;19.50;19.50;;;;;;;;5031915;28;45548;-67
2022/05/20 11:53:54;;;;;;;;;20.50;20.25;;;;;;;;5033072;28;45392;-67
2022/05/20 11:56:42;;;;;;;;;21.50;21.25;;;;;;;;5018519;28;45712;-66
2022/05/20 11:59:27;;;;;;;;;14.75;14.25;;;;;;;;5030950;28;47880;-66
2022/05/20 12:01:55;;;;;;;;;16.00;15.00;;;;;;;;5031153;28;45379;-67
2022/05/20 12:04:22;;;;;;;;;18.50;16.50;;;;;;;;5031570;28;45378;-65
2022/05/20 12:06:52;;;;;;;;;16.00;16.00;;;;;;;;5030249;28;46597;-66
2022/05/20 12:09:26;;;;;;;;;16.00;15.50;;;;;;;;5028465;28;45565;-66
2022/05/20 12:12:11;;;;;;;;;17.75;14.75;;;;;;;;5018656;28;45646;-67
2022/05/20 12:14:55;;;;;;;;;21.75;19.75;;;;;;;;5031238;28;45376;-66
2022/05/20 12:17:31;;;;;;;;;16.50;15.50;;;;;;;;5017355;28;46280;-67
2022/05/20 12:25:57;;;;;;;;;16.00;13.50;;;;;;;;5048589;28;45477;-67
2022/05/20 12:28:22;;;;;;;;;17.50;14.75;;;;;;;;5048164;28;45523;-67
2022/05/20 12:31:07;;;;;;;;;13.25;11.50;;;;;;;;5049303;28;45442;-67
2022/05/20 12:33:51;;;;;;;;;12.50;11.75;;;;;;;;5050359;28;45448;-67
2022/05/20 12:36:34;;;;;;;;;12.25;10.75;;;;;;;;5030356;28;45556;-67
2022/05/20 12:39:19;;;;;;;;;13.75;12.50;;;;;;;;5039666;28;46084;-68
2022/05/20 12:41:58;;;;;;;;;8.75;7.00;;;;;;;;5049936;28;45482;-68
2022/05/20 12:44:23;;;;;;;;;8.75;8.75;;;;;;;;5036011;28;45546;-68
2022/05/20 12:46:48;;;;;;;;;13.00;10.50;;;;;;;;5051672;28;45416;-68
2022/05/20 12:49:14;;;;;;;;;11.50;11.00;;;;;;;;5033878;28;47723;-68
2022/05/20 12:51:44;;;;;;;;;9.00;7.50;;;;;;;;5049950;28;45606;-68
2022/05/20 12:54:18;;;;;;;;;7.50;7.50;;;;;;;;5046743;28;45505;-67
2022/05/20 12:56:44;;;;;;;;;9.00;9.00;;;;;;;;5038257;28;45879;-67
2022/05/20 12:59:15;;;;;;;;;8.00;8.00;;;;;;;;5047146;28;46748;-68
2022/05/20 13:01:48;;;;;;;;;6.00;6.00;;;;;;;;5029074;28;45453;-67
2022/05/20 13:04:15;;;;;;;;;7.50;6.00;;;;;;;;5031770;28;45574;-67
2022/05/20 13:06:43;;;;;;;;;5.00;5.00;;;;;;;;5030697;28;45590;-67
2022/05/20 13:09:08;;;;;;;;;5.00;5.00;;;;;;;;5030376;28;46180;-67
2022/05/20 13:11:44;;;;;;;;;6.25;6.25;;;;;;;;5032131;28;45774;-67
2022/05/20 13:14:13;;;;;;;;;5.00;5.00;;;;;;;;5029898;28;45464;-67
2022/05/20 13:16:39;;;;;;;;;7.25;6.75;;;;;;;;5034248;28;45606;-67
2022/05/20 13:19:09;;;;;;;;;5.33;5.33;;;;;;;;5044016;28;48442;-67
2022/05/20 13:21:38;;;;;;;;;4.00;4.00;;;;;;;;5026178;28;45817;-68
2022/05/20 13:24:12;;;;;;;;;7.00;6.25;;;;;;;;5030858;28;45559;-68
2022/05/20 13:26:37;;;;;;;;;6.50;6.50;;;;;;;;5032148;28;45453;-68
2022/05/20 13:29:08;;;;;;;;;9.75;6.50;;;;;;;;5030632;28;48850;-67
2022/05/20 13:31:33;;;;;;;;;8.25;8.25;;;;;;;;5036125;28;45507;-67
2022/05/20 13:33:59;;;;;;;;;7.25;6.25;;;;;;;;5035191;28;45451;-68
2022/05/20 13:36:24;;;;;;;;;9.50;7.75;;;;;;;;5033955;28;45833;-67
2022/05/20 13:38:52;;;;;;;;;10.00;9.00;;;;;;;;5033197;28;45646;-68
2022/05/20 13:41:20;;;;;;;;;8.25;8.25;;;;;;;;5035314;28;45715;-67
2022/05/20 13:43:45;;;;;;;;;10.75;7.25;;;;;;;;5036757;28;45377;-67
2022/05/20 13:49:15;;;;;;;;;8.25;6.00;;;;;;;;5035045;28;45381;-70
2022/05/20 13:51:50;;;;;;;;;6.50;6.50;;;;;;;;5034964;28;45516;-68
2022/05/20 13:54:23;;;;;;;;;8.50;7.25;;;;;;;;5032162;28;45588;-68
2022/05/20 13:56:50;;;;;;;;;6.00;6.00;;;;;;;;5038967;28;45739;-65
2022/05/20 13:59:27;;;;;;;;;6.00;5.75;;;;;;;;5036862;28;46101;-67
2022/05/20 14:02:08;;;;;;;;;6.50;6.50;;;;;;;;5029934;28;45856;-66
2022/05/20 14:04:38;;;;;;;;;9.00;6.75;;;;;;;;5046434;28;45352;-68
2022/05/20 14:07:05;;;;;;;;;10.00;9.00;;;;;;;;5025229;28;45318;-67
2022/05/20 14:09:31;;;;;;;;;11.50;11.50;;;;;;;;5032392;28;49689;-68
2022/05/20 14:11:56;;;;;;;;;13.00;13.00;;;;;;;;5030060;28;46215;-67
2022/05/20 14:14:26;;;;;;;;;12.00;10.75;;;;;;;;5038500;28;45874;-68
2022/05/20 14:16:51;;;;;;;;;13.00;13.00;;;;;;;;5040175;28;45721;-68
2022/05/20 14:19:31;;;;;;;;;14.50;13.25;;;;;;;;5025471;28;47337;-69
2022/05/20 14:22:05;;;;;;;;;17.00;15.00;;;;;;;;5041476;28;45346;-69
2022/05/20 14:24:33;;;;;;;;;20.50;20.50;;;;;;;;5033611;28;45398;-67
2022/05/20 14:26:58;;;;;;;;;23.75;20.75;;;;;;;;5032134;28;45521;-68
2022/05/20 14:29:34;;;;;;;;;29.00;22.75;;;;;;;;5040420;28;47676;-67
2022/05/20 14:32:02;;;;;;;;;26.50;23.75;;;;;;;;5027177;28;46316;-71
2022/05/20 14:34:43;;;;;;;;;26.25;26.00;;;;;;;;5045889;28;45442;-68
2022/05/20 14:37:13;;;;;;;;;30.25;29.25;;;;;;;;5030122;28;45571;-67
2022/05/20 14:39:40;;;;;;;;;34.00;28.75;;;;;;;;5041171;28;45542;-66
2022/05/20 14:42:08;;;;;;;;;30.50;29.50;;;;;;;;5041621;28;45409;-66
2022/05/20 14:44:34;;;;;;;;;28.25;27.50;;;;;;;;5043586;28;45722;-68
2022/05/20 14:47:15;;;;;;;;;26.75;26.25;;;;;;;;5048318;28;45351;-66
2022/05/20 14:49:46;;;;;;;;;25.50;25.50;;;;;;;;5025441;28;45437;-64
2022/05/20 14:52:18;;;;;;;;;26.75;26.75;;;;;;;;5051054;28;46698;-68
2022/05/20 14:54:45;;;;;;;;;32.25;31.25;;;;;;;;5030002;28;45467;-67
2022/05/20 14:57:20;;;;;;;;;30.00;28.50;;;;;;;;5035245;28;45776;-64
2022/05/20 14:59:45;;;;;;;;;27.25;26.50;;;;;;;;5045978;28;46599;-64
2022/05/20 15:02:10;;;;;;;;;22.00;21.25;;;;;;;;5026416;28;45442;-64
2022/05/20 15:04:35;;;;;;;;;30.25;26.75;;;;;;;;5046180;28;45419;-64
2022/05/20 15:07:01;;;;;;;;;32.50;28.25;;;;;;;;5024282;28;45504;-65
2022/05/20 15:09:31;;;;;;;;;23.25;22.00;;;;;;;;5039386;28;45775;-64
2022/05/20 15:11:57;;;;;;;;;20.25;18.25;;;;;;;;5043446;28;45642;-68
2022/05/20 15:14:22;;;;;;;;;24.50;22.50;;;;;;;;5028087;28;45580;-67
2022/05/20 15:16:47;;;;;;;;;17.25;16.25;;;;;;;;5048422;28;45612;-69
2022/05/20 15:19:13;;;;;;;;;15.50;15.25;;;;;;;;5024936;28;45647;-68
2022/05/20 15:21:39;;;;;;;;;20.50;15.75;;;;;;;;5037637;28;45582;-68